createdAt,value
2019-03-03T00:00:35.670Z,60.00
2019-03-03T00:03:04.279Z,60.30
2019-03-03T00:05:32.852Z,60.20
2019-03-03T00:08:01.318Z,60.30
2019-03-03T00:10:30.224Z,60.40
2019-03-03T00:12:58.763Z,60.40
2019-03-03T00:15:27.492Z,60.00
2019-03-03T00:17:56.279Z,60.10
2019-03-03T00:20:24.791Z,60.10
2019-03-03T00:22:53.276Z,60.00
2019-03-03T00:25:21.786Z,60.00
2019-03-03T00:27:50.255Z,60.10
2019-03-03T00:30:19.739Z,59.90
2019-03-03T00:32:48.225Z,59.80
2019-03-03T00:35:16.733Z,59.60
2019-03-03T00:37:55.555Z,59.80
2019-03-03T00:40:25.932Z,59.80
2019-03-03T00:42:59.171Z,59.90
2019-03-03T00:45:41.162Z,59.90
2019-03-03T00:48:14.054Z,59.80
2019-03-03T00:50:47.016Z,59.50
2019-03-03T00:53:17.150Z,59.70
2019-03-03T00:55:53.248Z,59.60
2019-03-03T00:58:24.738Z,59.50
2019-03-03T01:00:57.575Z,60.00
2019-03-03T01:03:27.659Z,59.50
2019-03-03T01:06:06.472Z,59.60
2019-03-03T01:08:49.713Z,59.40
2019-03-03T01:11:27.190Z,59.60
2019-03-03T01:14:13.575Z,59.20
2019-03-03T01:16:49.570Z,59.20
2019-03-03T01:19:36.687Z,59.30
2019-03-03T01:22:21.900Z,59.40
2019-03-03T01:24:52.076Z,59.20
2019-03-03T01:27:20.562Z,59.30
2019-03-03T01:29:49.052Z,59.10
2019-03-03T01:32:17.491Z,59.30
2019-03-03T01:34:45.987Z,59.30
2019-03-03T01:37:14.410Z,59.10
2019-03-03T01:39:42.913Z,59.30
2019-03-03T01:42:11.424Z,59.30
2019-03-03T01:44:39.883Z,59.40
2019-03-03T01:47:08.340Z,59.40
2019-03-03T01:49:36.875Z,59.40
2019-03-03T01:52:05.401Z,59.30
2019-03-03T01:54:33.881Z,59.40
2019-03-03T01:57:02.348Z,59.50
2019-03-03T01:59:30.803Z,59.50
2019-03-03T02:01:59.283Z,59.60
2019-03-03T02:04:27.702Z,59.50
2019-03-03T02:06:56.259Z,59.50
2019-03-03T02:09:25.135Z,59.30
2019-03-03T02:11:53.600Z,59.40
2019-03-03T02:14:22.044Z,59.40
2019-03-03T02:16:50.580Z,59.60
2019-03-03T02:19:19.007Z,59.30
2019-03-03T02:21:47.570Z,59.30
2019-03-03T02:24:16.494Z,59.20
2019-03-03T02:26:45.036Z,59.10
2019-03-03T02:29:13.543Z,59.20
2019-03-03T02:31:42.131Z,59.20
2019-03-03T02:34:10.569Z,59.10
2019-03-03T02:36:39.058Z,58.90
2019-03-03T02:39:12.663Z,58.80
2019-03-03T02:41:41.284Z,58.60
2019-03-03T02:44:09.768Z,58.60
2019-03-03T02:46:38.317Z,58.90
2019-03-03T02:49:06.749Z,58.90
2019-03-03T02:51:35.199Z,58.80
2019-03-03T02:54:03.723Z,59.00
2019-03-03T02:56:32.587Z,58.90
2019-03-03T02:59:01.110Z,58.90
2019-03-03T03:01:31.210Z,58.90
2019-03-03T03:03:59.652Z,58.90
2019-03-03T03:06:35.571Z,58.70
2019-03-03T03:09:07.727Z,58.60
2019-03-03T03:11:37.839Z,58.60
2019-03-03T03:14:10.620Z,59.10
2019-03-03T03:16:55.698Z,58.60
2019-03-03T03:19:42.398Z,58.70
2019-03-03T03:22:18.283Z,58.50
2019-03-03T03:24:51.147Z,58.50
2019-03-03T03:27:21.261Z,58.80
2019-03-03T03:29:54.546Z,58.70
2019-03-03T03:32:27.446Z,58.60
2019-03-03T03:35:03.360Z,58.80
2019-03-03T03:37:45.452Z,58.70
2019-03-03T03:40:34.870Z,58.70
2019-03-03T03:43:18.126Z,58.70
2019-03-03T03:46:04.520Z,58.70
2019-03-03T03:48:34.630Z,58.70
2019-03-03T03:51:07.743Z,58.70
2019-03-03T03:53:46.759Z,58.60
2019-03-03T03:56:19.536Z,58.50
2019-03-03T03:58:49.783Z,58.70
2019-03-03T04:01:19.939Z,58.80
2019-03-03T04:04:08.676Z,59.00
2019-03-03T04:06:47.257Z,58.80
2019-03-03T04:09:17.418Z,58.70
2019-03-03T04:11:50.356Z,58.90
2019-03-03T04:14:26.372Z,58.70
2019-03-03T04:17:12.702Z,58.60
2019-03-03T04:19:59.602Z,58.50
2019-03-03T04:22:51.810Z,58.60
2019-03-03T04:25:37.880Z,58.80
2019-03-03T04:28:13.252Z,58.70
2019-03-03T04:30:44.966Z,58.90
2019-03-03T04:33:18.614Z,58.70
2019-03-03T04:35:49.089Z,58.70
2019-03-03T04:38:33.891Z,58.70
2019-03-03T04:41:09.760Z,58.60
2019-03-03T04:43:54.825Z,58.70
2019-03-03T04:46:33.946Z,58.80
2019-03-03T04:49:07.004Z,58.80
2019-03-03T04:51:43.115Z,58.90
2019-03-03T04:54:29.812Z,58.60
2019-03-03T04:57:02.774Z,58.50
2019-03-03T04:59:32.851Z,58.60
2019-03-03T05:02:19.639Z,58.50
2019-03-03T05:04:58.745Z,58.40
2019-03-03T05:07:37.857Z,58.40
2019-03-03T05:10:09.398Z,58.60
2019-03-03T05:12:39.480Z,58.60
2019-03-03T05:15:24.222Z,58.50
2019-03-03T05:17:54.303Z,58.30
2019-03-03T05:20:22.769Z,58.60
2019-03-03T05:22:51.304Z,58.40
2019-03-03T05:25:19.738Z,58.50
2019-03-03T05:27:48.213Z,58.40
2019-03-03T05:30:16.782Z,58.30
2019-03-03T05:32:45.244Z,58.30
2019-03-03T05:35:13.676Z,58.50
2019-03-03T05:37:42.133Z,58.60
2019-03-03T05:40:10.566Z,58.40
2019-03-03T05:42:39.099Z,58.20
2019-03-03T05:45:07.870Z,58.10
2019-03-03T05:47:36.339Z,58.10
2019-03-03T05:50:06.211Z,57.90
2019-03-03T05:52:34.690Z,57.90
2019-03-03T05:55:03.658Z,58.00
2019-03-03T05:57:32.144Z,57.90
2019-03-03T06:00:00.668Z,58.00
2019-03-03T06:02:29.183Z,57.80
2019-03-03T06:04:57.658Z,57.80
2019-03-03T06:07:26.123Z,57.90
2019-03-03T06:09:54.561Z,57.80
2019-03-03T06:12:23.023Z,58.10
2019-03-03T06:14:51.464Z,57.90
2019-03-03T06:17:19.926Z,57.70
2019-03-03T06:19:48.355Z,57.50
2019-03-03T06:22:16.905Z,57.30
2019-03-03T06:24:45.343Z,57.50
2019-03-03T06:27:14.207Z,57.50
2019-03-03T06:29:42.659Z,57.50
2019-03-03T06:32:11.182Z,57.50
2019-03-03T06:34:39.626Z,57.60
2019-03-03T06:37:08.100Z,57.60
2019-03-03T06:39:36.537Z,57.70
2019-03-03T06:42:05.003Z,57.60
2019-03-03T06:44:33.463Z,57.70
2019-03-03T06:47:01.900Z,57.80
2019-03-03T06:49:30.362Z,57.50
2019-03-03T06:51:58.802Z,57.40
2019-03-03T06:54:27.269Z,57.30
2019-03-03T06:56:55.700Z,57.40
2019-03-03T06:59:24.248Z,57.30
2019-03-03T07:01:52.699Z,57.40
2019-03-03T07:04:21.146Z,57.40
2019-03-03T07:06:49.592Z,57.40
2019-03-03T07:09:18.040Z,57.90
2019-03-03T07:11:46.479Z,57.10
2019-03-03T07:14:15.690Z,56.90
2019-03-03T07:16:44.127Z,56.80
2019-03-03T07:19:12.596Z,56.90
2019-03-03T07:21:41.018Z,56.90
2019-03-03T07:24:09.503Z,57.00
2019-03-03T07:26:38.008Z,56.80
2019-03-03T07:29:06.477Z,56.90
2019-03-03T07:31:34.924Z,56.90
2019-03-03T07:34:03.447Z,56.80
2019-03-03T07:36:31.877Z,56.70
2019-03-03T07:39:00.332Z,56.70
2019-03-03T07:41:28.771Z,56.80
2019-03-03T07:43:57.242Z,56.70
2019-03-03T07:46:25.719Z,56.80
2019-03-03T07:48:54.233Z,56.60
2019-03-03T07:51:22.671Z,56.30
2019-03-03T07:53:51.171Z,56.40
2019-03-03T07:56:19.607Z,56.30
2019-03-03T07:58:48.132Z,56.40
2019-03-03T08:01:16.560Z,56.20
2019-03-03T08:03:45.059Z,56.20
2019-03-03T08:06:13.527Z,56.00
2019-03-03T08:08:42.044Z,56.30
2019-03-03T08:11:10.601Z,55.90
2019-03-03T08:13:39.088Z,55.90
2019-03-03T08:16:07.621Z,55.80
2019-03-03T08:18:36.050Z,55.70
2019-03-03T08:21:04.511Z,55.60
2019-03-03T08:23:33.279Z,55.70
2019-03-03T08:26:01.729Z,55.50
2019-03-03T08:28:30.165Z,55.40
2019-03-03T08:30:58.617Z,55.30
2019-03-03T08:33:27.054Z,55.70
2019-03-03T08:35:55.527Z,55.30
2019-03-03T08:38:23.970Z,55.10
2019-03-03T08:40:52.438Z,55.60
2019-03-03T08:43:22.606Z,55.60
2019-03-03T08:46:07.791Z,55.20
2019-03-03T08:48:37.862Z,55.40
2019-03-03T08:51:07.992Z,55.20
2019-03-03T08:53:38.074Z,55.30
2019-03-03T08:56:08.287Z,55.30
2019-03-03T08:58:56.496Z,54.90
2019-03-03T09:01:29.168Z,55.10
2019-03-03T09:03:59.282Z,55.00
2019-03-03T09:06:45.578Z,55.10
2019-03-03T09:09:31.848Z,54.90
2019-03-03T09:12:04.880Z,54.80
2019-03-03T09:14:35.026Z,54.80
2019-03-03T09:17:05.152Z,54.70
2019-03-03T09:19:35.236Z,54.40
2019-03-03T09:22:05.354Z,55.20
2019-03-03T09:24:41.521Z,54.40
2019-03-03T09:27:27.535Z,54.60
2019-03-03T09:29:57.643Z,54.80
2019-03-03T09:32:44.144Z,54.80
2019-03-03T09:35:20.239Z,54.50
2019-03-03T09:38:02.464Z,54.60
2019-03-03T09:40:32.546Z,54.40
2019-03-03T09:43:20.967Z,54.40
2019-03-03T09:45:53.878Z,54.60
2019-03-03T09:48:27.002Z,54.50
2019-03-03T09:50:59.544Z,54.40
2019-03-03T09:53:38.386Z,54.50
2019-03-03T09:56:14.170Z,54.50
2019-03-03T09:58:59.384Z,54.50
2019-03-03T10:01:32.639Z,54.30
2019-03-03T10:04:05.248Z,54.10
2019-03-03T10:06:51.686Z,54.00
2019-03-03T10:09:40.545Z,53.90
2019-03-03T10:12:16.678Z,53.90
2019-03-03T10:14:52.956Z,53.90
2019-03-03T10:17:23.124Z,53.80
2019-03-03T10:20:09.349Z,53.90
2019-03-03T10:22:39.576Z,53.80
2019-03-03T10:25:12.174Z,53.80
2019-03-03T10:27:44.872Z,53.60
2019-03-03T10:30:25.962Z,53.50
2019-03-03T10:32:59.042Z,53.50
2019-03-03T10:35:31.950Z,53.60
2019-03-03T10:38:02.083Z,53.50
2019-03-03T10:40:32.398Z,53.50
2019-03-03T10:43:08.567Z,53.40
2019-03-03T10:45:38.709Z,53.50
2019-03-03T10:48:27.143Z,53.40
2019-03-03T10:51:13.831Z,52.70
2019-03-03T10:53:46.631Z,52.80
2019-03-03T10:56:20.803Z,53.10
2019-03-03T10:58:50.985Z,53.30
2019-03-03T11:01:21.123Z,52.10
2019-03-03T11:03:54.008Z,52.00
2019-03-03T11:06:39.456Z,51.50
2019-03-03T11:09:15.236Z,50.90
2019-03-03T11:12:02.738Z,50.60
2019-03-03T11:14:35.531Z,49.70
2019-03-03T11:17:06.271Z,50.30
2019-03-03T11:19:36.383Z,49.90
2019-03-03T11:22:12.668Z,50.10
2019-03-03T11:24:45.721Z,49.60
2019-03-03T11:27:21.535Z,50.00
2019-03-03T11:30:01.323Z,50.30
2019-03-03T11:32:40.613Z,50.30
2019-03-03T11:35:20.344Z,50.20
2019-03-03T11:37:53.430Z,49.80
2019-03-03T11:40:29.484Z,50.30
2019-03-03T11:43:08.212Z,50.40
2019-03-03T11:45:38.379Z,50.10
2019-03-03T11:48:11.192Z,50.30
2019-03-03T11:50:56.526Z,50.30
2019-03-03T11:53:35.821Z,50.20
2019-03-03T11:56:08.961Z,50.20
2019-03-03T11:58:50.985Z,49.80
2019-03-03T12:01:37.585Z,50.00
2019-03-03T12:04:23.999Z,50.40
2019-03-03T12:07:00.037Z,50.60
2019-03-03T12:09:30.119Z,50.30
2019-03-03T12:12:03.000Z,50.30
2019-03-03T12:14:33.175Z,50.30
2019-03-03T12:17:03.426Z,50.20
2019-03-03T12:19:36.751Z,50.10
2019-03-03T12:22:08.887Z,49.90
2019-03-03T12:24:39.108Z,49.80
2019-03-03T12:27:09.301Z,50.00
2019-03-03T12:29:42.677Z,50.00
2019-03-03T12:32:12.802Z,49.80
2019-03-03T12:34:48.982Z,50.20
2019-03-03T12:37:19.888Z,50.10
2019-03-03T12:40:08.324Z,50.20
2019-03-03T12:42:41.382Z,50.10
2019-03-03T12:45:23.455Z,50.30
2019-03-03T12:48:10.007Z,50.40
2019-03-03T12:50:46.071Z,50.50
2019-03-03T12:53:32.446Z,50.60
2019-03-03T12:56:11.671Z,50.80
2019-03-03T12:58:58.338Z,50.90
2019-03-03T13:01:43.139Z,51.00
2019-03-03T13:04:22.829Z,51.10
2019-03-03T13:06:56.023Z,51.20
2019-03-03T13:09:28.918Z,51.30
2019-03-03T13:12:16.959Z,51.30
2019-03-03T13:15:03.013Z,51.30
2019-03-03T13:17:35.594Z,51.20
2019-03-03T13:20:17.602Z,51.40
2019-03-03T13:22:53.430Z,51.40
2019-03-03T13:25:23.663Z,51.50
2019-03-03T13:27:59.494Z,51.70
2019-03-03T13:30:29.644Z,51.70
2019-03-03T13:32:59.737Z,51.70
2019-03-03T13:35:35.399Z,51.80
2019-03-03T13:38:05.658Z,51.90
2019-03-03T13:40:38.591Z,52.00
2019-03-03T13:43:07.116Z,51.80
2019-03-03T13:45:35.831Z,51.80
2019-03-03T13:48:04.725Z,51.80
2019-03-03T13:50:34.128Z,51.70
2019-03-03T13:53:02.576Z,51.60
2019-03-03T13:55:31.102Z,51.50
2019-03-03T13:57:59.695Z,51.50
2019-03-03T14:00:28.222Z,51.50
2019-03-03T14:02:56.726Z,51.50
2019-03-03T14:05:25.298Z,51.60
2019-03-03T14:07:53.843Z,51.60
2019-03-03T14:10:22.406Z,51.50
2019-03-03T14:12:50.947Z,51.60
2019-03-03T14:15:20.110Z,51.70
2019-03-03T14:17:48.736Z,51.70
2019-03-03T14:20:19.445Z,51.60
2019-03-03T14:22:48.043Z,51.70
2019-03-03T14:25:16.973Z,51.60
2019-03-03T14:27:45.519Z,51.50
2019-03-03T14:30:19.568Z,51.40
2019-03-03T14:32:48.139Z,51.50
2019-03-03T14:35:17.306Z,51.60
2019-03-03T14:37:45.866Z,51.70
2019-03-03T14:40:17.090Z,51.70
2019-03-03T14:42:45.763Z,51.60
2019-03-03T14:45:18.443Z,51.70
2019-03-03T14:47:47.322Z,51.70
2019-03-03T14:50:21.069Z,51.60
2019-03-03T14:52:54.625Z,51.70
2019-03-03T14:55:23.139Z,51.80
2019-03-03T14:57:51.704Z,51.60
2019-03-03T15:00:28.534Z,51.60
2019-03-03T15:02:58.091Z,51.70
2019-03-03T15:05:26.647Z,51.70
2019-03-03T15:07:55.464Z,51.70
2019-03-03T15:10:24.096Z,51.60
2019-03-03T15:12:52.621Z,51.60
2019-03-03T15:15:29.468Z,51.50
2019-03-03T15:17:58.004Z,51.50
2019-03-03T15:20:26.514Z,51.50
2019-03-03T15:22:54.956Z,51.50
2019-03-03T15:25:23.495Z,51.50
2019-03-03T15:27:52.072Z,51.60
2019-03-03T15:30:22.741Z,51.50
2019-03-03T15:32:51.346Z,52.20
2019-03-03T15:35:20.147Z,51.70
2019-03-03T15:37:48.879Z,51.90
2019-03-03T15:40:19.675Z,52.10
2019-03-03T15:42:48.271Z,52.20
2019-03-03T15:45:21.800Z,52.20
2019-03-03T15:47:50.378Z,52.00
2019-03-03T15:50:20.857Z,51.90
2019-03-03T15:52:49.436Z,51.90
2019-03-03T15:55:19.667Z,51.80
2019-03-03T15:57:48.275Z,51.80
2019-03-03T16:00:25.374Z,51.80
2019-03-03T16:02:53.959Z,51.70
2019-03-03T16:05:22.606Z,51.70
2019-03-03T16:07:51.154Z,51.70
2019-03-03T16:10:22.870Z,51.60
2019-03-03T16:12:51.407Z,51.60
2019-03-03T16:15:20.054Z,51.50
2019-03-03T16:17:48.572Z,51.40
2019-03-03T16:20:21.816Z,51.50
2019-03-03T16:22:50.345Z,51.40
2019-03-03T16:25:23.446Z,51.40
2019-03-03T16:27:51.922Z,51.80
2019-03-03T16:30:21.552Z,51.80
2019-03-03T16:32:50.310Z,51.70
2019-03-03T16:35:18.874Z,51.80
2019-03-03T16:37:47.563Z,52.50
2019-03-03T16:40:20.641Z,51.80
2019-03-03T16:42:49.264Z,51.80
2019-03-03T16:45:18.439Z,51.80
2019-03-03T16:47:47.044Z,51.80
2019-03-03T16:50:23.030Z,51.70
2019-03-03T16:52:52.264Z,51.60
2019-03-03T16:55:21.523Z,51.80
2019-03-03T16:57:50.120Z,51.90
2019-03-03T17:00:23.756Z,52.00
2019-03-03T17:02:52.441Z,52.00
2019-03-03T17:05:26.166Z,51.90
2019-03-03T17:07:54.757Z,52.00
2019-03-03T17:10:23.251Z,52.00
2019-03-03T17:12:51.853Z,52.00
2019-03-03T17:15:39.830Z,52.00
2019-03-03T17:18:08.431Z,51.10
2019-03-03T17:20:36.874Z,51.60
2019-03-03T17:23:05.340Z,51.70
2019-03-03T17:25:33.936Z,51.80
2019-03-03T17:28:02.523Z,51.70
2019-03-03T17:30:31.166Z,51.80
2019-03-03T17:32:59.706Z,51.60
2019-03-03T17:35:28.166Z,51.90
2019-03-03T17:37:56.959Z,51.90
2019-03-03T17:40:26.657Z,51.70
2019-03-03T17:42:55.222Z,51.90
2019-03-03T17:45:24.704Z,51.80
2019-03-03T17:47:53.283Z,51.60
2019-03-03T17:50:25.951Z,51.70
2019-03-03T17:52:54.387Z,51.80
2019-03-03T17:55:22.978Z,51.80
2019-03-03T17:57:51.418Z,51.80
2019-03-03T18:00:25.923Z,51.60
2019-03-03T18:02:54.426Z,51.60
2019-03-03T18:05:23.042Z,51.60
2019-03-03T18:07:51.623Z,51.50
2019-03-03T18:10:20.326Z,51.40
2019-03-03T18:12:49.076Z,51.50
2019-03-03T18:15:18.177Z,51.50
2019-03-03T18:17:46.691Z,51.50
2019-03-03T18:20:19.338Z,51.60
2019-03-03T18:22:48.034Z,51.50
2019-03-03T18:25:17.992Z,51.40
2019-03-03T18:27:46.757Z,51.50
2019-03-03T18:30:17.934Z,51.50
2019-03-03T18:32:46.398Z,51.50
2019-03-03T18:35:15.134Z,51.60
2019-03-03T18:37:43.579Z,51.60
2019-03-03T18:40:14.853Z,51.60
2019-03-03T18:42:43.351Z,51.50
2019-03-03T18:45:14.476Z,51.50
2019-03-03T18:47:42.934Z,51.50
2019-03-03T18:50:17.507Z,51.40
2019-03-03T18:52:46.319Z,51.30
2019-03-03T18:55:14.812Z,51.30
2019-03-03T18:57:43.430Z,51.50
2019-03-03T19:00:17.442Z,51.40
2019-03-03T19:02:45.895Z,51.30
2019-03-03T19:05:14.672Z,51.30
2019-03-03T19:07:43.187Z,50.90
2019-03-03T19:10:35.079Z,51.00
2019-03-03T19:13:03.655Z,50.20
2019-03-03T19:15:33.388Z,50.70
2019-03-03T19:18:02.307Z,50.80
2019-03-03T19:20:30.879Z,50.70
2019-03-03T19:22:59.361Z,50.80
2019-03-03T19:25:27.853Z,50.70
2019-03-03T19:27:56.401Z,50.80
2019-03-03T19:30:28.931Z,50.70
2019-03-03T19:33:19.841Z,50.80
2019-03-03T19:35:48.353Z,50.90
2019-03-03T19:38:16.831Z,51.00
2019-03-03T19:40:45.265Z,51.00
2019-03-03T19:43:13.736Z,51.00
2019-03-03T19:45:44.212Z,51.00
2019-03-03T19:48:12.671Z,51.00
2019-03-03T19:50:41.110Z,50.80
2019-03-03T19:53:09.775Z,50.90
2019-03-03T19:55:38.278Z,50.90
2019-03-03T19:58:06.827Z,50.70
2019-03-03T20:00:39.058Z,50.70
2019-03-03T20:03:09.540Z,50.70
2019-03-03T20:05:38.029Z,50.50
2019-03-03T20:08:07.221Z,51.20
2019-03-03T20:10:35.978Z,50.40
2019-03-03T20:13:04.809Z,50.50
2019-03-03T20:15:33.668Z,50.60
2019-03-03T20:18:02.208Z,50.80
2019-03-03T20:20:31.055Z,50.90
2019-03-03T20:22:59.502Z,50.90
2019-03-03T20:25:28.240Z,50.80
2019-03-03T20:27:56.693Z,51.00
2019-03-03T20:30:25.841Z,50.90
2019-03-03T20:32:54.328Z,51.00
2019-03-03T20:35:23.054Z,51.10
2019-03-03T20:37:51.689Z,51.20
2019-03-03T20:40:27.313Z,51.20
2019-03-03T20:42:56.521Z,51.30
2019-03-03T20:45:32.437Z,51.30
2019-03-03T20:48:01.156Z,51.40
2019-03-03T20:50:29.877Z,51.60
2019-03-03T20:53:02.746Z,51.70
2019-03-03T20:55:32.412Z,51.90
2019-03-03T20:58:00.968Z,52.00
2019-03-03T21:00:30.826Z,52.00
2019-03-03T21:02:59.599Z,52.20
2019-03-03T21:05:28.435Z,52.20
2019-03-03T21:07:57.018Z,52.10
2019-03-03T21:10:30.404Z,52.20
2019-03-03T21:12:58.984Z,52.00
2019-03-03T21:15:27.635Z,51.80
2019-03-03T21:17:56.107Z,51.70
2019-03-03T21:20:25.282Z,52.00
2019-03-03T21:22:53.740Z,51.70
2019-03-03T21:25:22.418Z,51.70
2019-03-03T21:27:50.975Z,51.50
2019-03-03T21:30:23.788Z,51.40
2019-03-03T21:32:52.379Z,51.30
2019-03-03T21:35:21.563Z,51.20
2019-03-03T21:37:50.079Z,51.30
2019-03-03T21:40:19.995Z,51.40
2019-03-03T21:42:48.503Z,51.30
2019-03-03T21:45:21.498Z,51.40
2019-03-03T21:47:50.029Z,51.60
2019-03-03T21:50:29.789Z,51.60
2019-03-03T21:52:58.217Z,51.60
2019-03-03T21:55:26.830Z,51.40
2019-03-03T21:57:55.315Z,51.30
2019-03-03T22:00:35.977Z,51.10
2019-03-03T22:03:05.053Z,51.10
2019-03-03T22:05:33.654Z,51.10
2019-03-03T22:08:02.146Z,51.30
2019-03-03T22:10:31.363Z,51.30
2019-03-03T22:13:04.163Z,51.70
2019-03-03T22:15:33.039Z,52.00
2019-03-03T22:18:01.559Z,52.10
2019-03-03T22:20:29.997Z,52.10
2019-03-03T22:22:58.517Z,52.00
2019-03-03T22:25:26.978Z,52.50
2019-03-03T22:27:55.497Z,52.00
2019-03-03T22:30:23.916Z,52.00
2019-03-03T22:32:52.467Z,52.20
2019-03-03T22:35:20.955Z,52.10
2019-03-03T22:37:49.417Z,52.10
2019-03-03T22:40:20.459Z,52.00
2019-03-03T22:42:48.926Z,52.20
2019-03-03T22:45:18.107Z,52.20
2019-03-03T22:47:47.847Z,52.10
2019-03-03T22:50:17.529Z,52.30
2019-03-03T22:52:45.976Z,52.30
2019-03-03T22:55:16.289Z,52.20
2019-03-03T22:57:44.873Z,52.00
2019-03-03T23:00:33.571Z,52.10
2019-03-03T23:03:02.101Z,52.20
2019-03-03T23:05:39.306Z,52.20
2019-03-03T23:08:10.827Z,52.40
2019-03-03T23:11:00.536Z,52.60
2019-03-03T23:13:34.750Z,52.90
2019-03-03T23:16:18.154Z,53.10
2019-03-03T23:18:55.421Z,53.10
2019-03-03T23:21:44.998Z,53.00
2019-03-03T23:24:39.291Z,53.10
2019-03-03T23:27:07.796Z,53.10
2019-03-03T23:29:36.244Z,52.80
2019-03-03T23:32:04.927Z,52.70
2019-03-03T23:34:33.388Z,52.70
2019-03-03T23:37:01.815Z,52.50
2019-03-03T23:39:30.262Z,52.80
2019-03-03T23:41:58.690Z,52.70
2019-03-03T23:44:27.274Z,52.80
2019-03-03T23:46:55.708Z,52.70
2019-03-03T23:49:24.211Z,52.60
2019-03-03T23:51:52.651Z,52.50
2019-03-03T23:54:21.090Z,52.20
2019-03-03T23:56:49.519Z,52.30
2019-03-03T23:59:17.964Z,52.10
